Time,TemperatureF,DewpointF,PressureIn,WindDirection,WindDirectionDegrees,WindSpeedMPH,WindSpeedGustMPH,Humidity,HourlyPrecipIn,Conditions,Clouds,dailyrainin,SoftwareType,DateUTC
2013-06-30 00:52:00,83.0,32.0,-100.00,North,360,3.0,4.0,16,0.00,,,-99.99,,2013-06-30 07:52:00,
2013-06-30 01:33:00,83.0,32.0,-100.00,North,360,3.0,4.0,16,0.00,,,-99.99,,2013-06-30 08:33:00,
2013-06-30 01:42:00,83.0,32.0,-100.00,North,360,3.0,4.0,16,0.00,,,-99.99,,2013-06-30 08:42:00,
2013-06-30 01:52:00,82.0,30.0,-100.00,NNW,330,7.0,10.0,15,0.00,,,-99.99,,2013-06-30 08:52:00,
2013-06-30 02:33:00,82.0,30.0,-100.00,NNW,330,7.0,10.0,15,0.00,,,-99.99,,2013-06-30 09:33:00,
2013-06-30 02:43:00,82.0,30.0,-100.00,NNW,330,7.0,10.0,15,0.00,,,-99.99,,2013-06-30 09:43:00,
2013-06-30 02:52:00,82.0,30.0,-100.00,NNW,340,7.0,10.0,15,0.00,,,-99.99,,2013-06-30 09:52:00,
2013-06-30 03:33:00,82.0,30.0,-100.00,NNW,340,7.0,10.0,15,0.00,,,-99.99,,2013-06-30 10:33:00,
2013-06-30 03:42:00,82.0,30.0,-100.00,NNW,340,7.0,10.0,15,0.00,,,-99.99,,2013-06-30 10:42:00,
2013-06-30 03:52:00,81.0,29.0,-100.00,NNW,330,7.0,10.0,15,0.00,,,-99.99,,2013-06-30 10:52:00,
2013-06-30 04:33:00,81.0,29.0,-100.00,NNW,330,7.0,10.0,15,0.00,,,-99.99,,2013-06-30 11:33:00,
2013-06-30 04:43:00,81.0,29.0,-100.00,NNW,330,7.0,10.0,15,0.00,,,-99.99,,2013-06-30 11:43:00,
2013-06-30 04:52:00,82.0,24.0,-100.00,NNW,340,5.0,6.0,12,0.00,,,-99.99,,2013-06-30 11:52:00,
2013-06-30 05:33:00,82.0,24.0,-100.00,NNW,340,5.0,6.0,12,0.00,,,-99.99,,2013-06-30 12:33:00,
2013-06-30 05:43:00,82.0,24.0,-100.00,NNW,340,5.0,6.0,12,0.00,,,-99.99,,2013-06-30 12:43:00,
2013-06-30 05:52:00,82.0,26.0,-100.00,SSE,160,3.0,4.0,13,0.00,,,-99.99,,2013-06-30 12:52:00,
2013-06-30 06:33:00,82.0,26.0,-100.00,SSE,160,3.0,4.0,13,0.00,,,-99.99,,2013-06-30 13:33:00,
2013-06-30 06:43:00,82.0,26.0,-100.00,SSE,160,3.0,4.0,13,0.00,,,-99.99,,2013-06-30 13:43:00,
2013-06-30 07:33:00,82.0,26.0,-100.00,East,100,6.0,9.0,13,0.00,,,-99.99,,2013-06-30 14:33:00,
2013-06-30 07:44:00,82.0,26.0,-100.00,East,100,6.0,9.0,13,0.00,,,-99.99,,2013-06-30 14:44:00,
2013-06-30 07:52:00,82.0,31.0,-100.00,ESE,110,6.0,10.0,16,0.00,,,-99.99,,2013-06-30 14:52:00,
2013-06-30 08:52:00,83.0,34.0,-100.00,SE,130,6.0,10.0,17,0.00,,,-99.99,,2013-06-30 15:52:00,
2013-06-30 09:34:00,83.0,34.0,-100.00,SE,130,6.0,10.0,17,0.00,,,-99.99,,2013-06-30 16:34:00,
2013-06-30 09:44:00,83.0,34.0,-100.00,SE,130,6.0,10.0,17,0.00,,,-99.99,,2013-06-30 16:44:00,
2013-06-30 09:52:00,82.0,34.0,-100.00,SE,130,5.0,6.0,18,0.00,,,-99.99,,2013-06-30 16:52:00,
2013-06-30 10:34:00,82.0,34.0,-100.00,SE,130,5.0,6.0,18,0.00,,,-99.99,,2013-06-30 17:34:00,
2013-06-30 10:43:00,82.0,34.0,-100.00,SE,130,5.0,6.0,18,0.00,,,-99.99,,2013-06-30 17:43:00,
2013-06-30 10:52:00,83.0,35.0,-100.00,SSE,160,7.0,9.0,18,0.00,,,-99.99,,2013-06-30 17:52:00,
2013-06-30 11:34:00,83.0,35.0,-100.00,SSE,160,7.0,9.0,18,0.00,,,-99.99,,2013-06-30 18:34:00,
2013-06-30 11:43:00,83.0,35.0,-100.00,SSE,160,7.0,9.0,18,0.00,,,-99.99,,2013-06-30 18:43:00,
2013-06-30 11:52:00,85.0,32.0,-100.00,SW,220,13.0,16.0,15,0.00,,,-99.99,,2013-06-30 18:52:00,
2013-06-30 12:33:00,85.0,32.0,-100.00,SW,220,13.0,16.0,15,0.00,,,-99.99,,2013-06-30 19:33:00,
2013-06-30 12:43:00,85.0,32.0,-100.00,SW,220,13.0,16.0,15,0.00,,,-99.99,,2013-06-30 19:43:00,
2013-06-30 12:52:00,86.0,44.0,-100.00,NNE,30,3.0,16.0,23,0.00,,,-99.99,,2013-06-30 19:52:00,
2013-06-30 13:34:00,86.0,44.0,-100.00,NNE,30,3.0,16.0,23,0.00,,,-99.99,,2013-06-30 20:34:00,
2013-06-30 13:42:00,86.0,44.0,-100.00,NNE,30,3.0,16.0,23,0.00,,,-99.99,,2013-06-30 20:42:00,
2013-06-30 13:52:00,84.0,44.0,-100.00,NNE,30,5.0,7.0,25,0.00,,,-99.99,,2013-06-30 20:52:00,
2013-06-30 14:34:00,84.0,44.0,-100.00,NNE,30,5.0,7.0,25,0.00,,,-99.99,,2013-06-30 21:34:00,
2013-06-30 14:42:00,84.0,44.0,-100.00,NNE,30,5.0,7.0,25,0.00,,,-99.99,,2013-06-30 21:42:00,
2013-06-30 14:52:00,86.0,44.0,-100.00,NNE,20,2.0,9.0,23,0.00,,,-99.99,,2013-06-30 21:52:00,
2013-06-30 15:34:00,86.0,44.0,-100.00,NNE,20,2.0,9.0,23,0.00,,,-99.99,,2013-06-30 22:34:00,
2013-06-30 15:43:00,86.0,44.0,-100.00,NNE,20,2.0,9.0,23,0.00,,,-99.99,,2013-06-30 22:43:00,
2013-06-30 15:52:00,85.0,44.0,-100.00,West,270,11.0,15.0,24,0.00,,,-99.99,,2013-06-30 22:52:00,
2013-06-30 16:33:00,85.0,44.0,-100.00,West,270,11.0,15.0,24,0.00,,,-99.99,,2013-06-30 23:33:00,
2013-06-30 16:43:00,85.0,44.0,-100.00,West,270,11.0,15.0,24,0.00,,,-99.99,,2013-06-30 23:43:00,
2013-06-30 17:52:00,79.0,41.0,-100.00,WSW,240,22.0,24.0,26,0.00,,,-99.99,,2013-07-01 00:52:00,
2013-06-30 18:33:00,79.0,41.0,-100.00,WSW,240,22.0,24.0,26,0.00,,,-99.99,,2013-07-01 01:33:00,
2013-06-30 18:42:00,79.0,41.0,-100.00,WSW,240,22.0,24.0,26,0.00,,,-99.99,,2013-07-01 01:42:00,
2013-06-30 18:52:00,77.0,40.0,-100.00,WSW,240,13.0,19.0,27,0.00,,,-99.99,,2013-07-01 01:52:00,
2013-06-30 19:33:00,77.0,40.0,-100.00,WSW,240,13.0,19.0,27,0.00,,,-99.99,,2013-07-01 02:33:00,
2013-06-30 19:43:00,77.0,40.0,-100.00,WSW,240,13.0,19.0,27,0.00,,,-99.99,,2013-07-01 02:43:00,
2013-06-30 19:52:00,78.0,34.0,-100.00,West,260,15.0,17.0,20,0.00,,,-99.99,,2013-07-01 02:52:00,
2013-06-30 20:33:00,78.0,34.0,-100.00,West,260,15.0,17.0,20,0.00,,,-99.99,,2013-07-01 03:33:00,
2013-06-30 20:43:00,78.0,34.0,-100.00,West,260,15.0,17.0,20,0.00,,,-99.99,,2013-07-01 03:43:00,
2013-06-30 20:52:00,78.0,35.0,-100.00,WSW,240,12.0,19.0,21,0.00,,,-99.99,,2013-07-01 03:52:00,
2013-06-30 21:32:00,78.0,35.0,-100.00,WSW,240,12.0,19.0,21,0.00,,,-99.99,,2013-07-01 04:32:00,
2013-06-30 21:42:00,78.0,35.0,-100.00,WSW,240,12.0,19.0,21,0.00,,,-99.99,,2013-07-01 04:42:00,
2013-06-30 21:52:00,78.0,34.0,-100.00,WSW,240,14.0,17.0,20,0.00,,,-99.99,,2013-07-01 04:52:00,
2013-06-30 22:33:00,78.0,34.0,-100.00,WSW,240,14.0,17.0,20,0.00,,,-99.99,,2013-07-01 05:33:00,
2013-06-30 22:42:00,78.0,34.0,-100.00,WSW,240,14.0,17.0,20,0.00,,,-99.99,,2013-07-01 05:42:00,
2013-06-30 22:52:00,78.0,32.0,-100.00,WSW,240,17.0,18.0,19,0.00,,,-99.99,,2013-07-01 05:52:00,
2013-06-30 23:33:00,78.0,32.0,-100.00,WSW,240,17.0,18.0,19,0.00,,,-99.99,,2013-07-01 06:33:00,
2013-06-30 23:43:00,78.0,32.0,-100.00,WSW,240,17.0,18.0,19,0.00,,,-99.99,,2013-07-01 06:43:00,